createdAt,value
2022-08-27T05:34:49.644Z,23.11
2022-08-27T05:37:17.552Z,23.50
2022-08-27T05:39:45.512Z,23.47
2022-08-27T05:42:13.536Z,23.86
2022-08-27T05:44:42.098Z,24.04
2022-08-27T05:47:10.491Z,24.15
2022-08-27T05:49:38.869Z,24.42
2022-08-27T05:52:11.613Z,23.40
2022-08-27T05:54:39.883Z,23.79
2022-08-27T05:57:08.149Z,24.03
2022-08-27T05:59:54.374Z,24.85
2022-08-27T06:02:22.529Z,24.78
2022-08-27T06:04:50.977Z,24.60
2022-08-27T06:07:20.461Z,25.35
2022-08-27T06:09:48.438Z,25.72
2022-08-27T06:12:16.349Z,25.59
2022-08-27T06:14:44.260Z,25.51
2022-08-27T06:17:12.130Z,25.85
2022-08-27T06:19:42.378Z,26.23
2022-08-27T06:22:11.133Z,26.47
2022-08-27T06:24:41.439Z,26.60
2022-08-27T06:27:12.356Z,26.37
2022-08-27T06:29:40.967Z,26.15
2022-08-27T06:32:10.085Z,26.25
2022-08-27T06:34:38.884Z,26.14
2022-08-27T06:37:07.466Z,25.76
2022-08-27T06:39:36.270Z,25.55
2022-08-27T06:42:07.515Z,25.63
2022-08-27T06:44:35.467Z,26.60
2022-08-27T06:47:04.680Z,26.67
2022-08-27T06:49:33.834Z,26.52
2022-08-27T06:52:03.398Z,26.56
2022-08-27T06:54:32.299Z,26.53
2022-08-27T06:57:00.998Z,26.82
2022-08-27T06:59:30.319Z,27.29
2022-08-27T07:01:58.572Z,27.37
2022-08-27T07:04:30.749Z,27.53
2022-08-27T07:07:01.367Z,27.24
2022-08-27T07:09:31.983Z,27.48
2022-08-27T07:12:00.249Z,27.79
2022-08-27T07:14:28.330Z,27.93
2022-08-27T07:16:57.587Z,28.01
2022-08-27T07:19:25.472Z,28.79
2022-08-27T07:21:53.368Z,29.03
2022-08-27T07:24:21.701Z,28.95
2022-08-27T07:26:49.635Z,28.62
2022-08-27T07:29:17.796Z,28.53
2022-08-27T07:31:46.006Z,29.20
2022-08-27T07:34:15.698Z,29.58
2022-08-27T07:36:43.608Z,29.26
2022-08-27T07:39:13.883Z,28.69
2022-08-27T07:41:55.606Z,28.97
2022-08-27T07:44:30.983Z,29.16
2022-08-27T07:47:02.543Z,29.08
2022-08-27T07:49:35.052Z,29.17
2022-08-27T07:52:03.191Z,30.02
2022-08-27T07:54:31.148Z,29.95
2022-08-27T07:56:59.251Z,30.14
2022-08-27T07:59:27.817Z,30.69
2022-08-27T08:01:57.012Z,30.36
2022-08-27T08:04:26.635Z,30.56
2022-08-27T08:06:56.668Z,30.76
2022-08-27T08:09:25.228Z,30.98
2022-08-27T08:11:54.166Z,30.73
2022-08-27T08:14:22.167Z,31.04
2022-08-27T08:16:50.115Z,31.30
2022-08-27T08:19:18.255Z,31.24
2022-08-27T08:21:46.164Z,31.65
2022-08-27T08:24:15.432Z,31.58
2022-08-27T08:26:44.331Z,31.28
2022-08-27T08:29:18.063Z,32.08
2022-08-27T08:31:50.134Z,32.28
2022-08-27T08:34:19.317Z,31.71
2022-08-27T08:36:54.011Z,31.83
2022-08-27T08:39:24.124Z,32.67
2022-08-27T08:41:54.915Z,33.33
2022-08-27T08:44:34.072Z,33.54
2022-08-27T08:47:09.510Z,32.56
2022-08-27T08:49:45.400Z,32.10
2022-08-27T08:52:30.441Z,33.00
2022-08-27T08:55:09.800Z,32.81
2022-08-27T08:57:44.205Z,33.22
2022-08-27T09:00:14.725Z,32.56
2022-08-27T09:02:50.370Z,32.78
2022-08-27T09:05:18.622Z,33.01
2022-08-27T09:08:05.057Z,32.57
2022-08-27T09:10:46.571Z,32.61
2022-08-27T09:13:22.652Z,32.92
2022-08-27T09:15:53.222Z,33.56
2022-08-27T09:18:21.120Z,33.85
2022-08-27T09:20:59.208Z,33.29
2022-08-27T09:23:41.188Z,32.94
2022-08-27T09:26:20.596Z,33.00
2022-08-27T09:29:06.430Z,33.61
2022-08-27T09:31:40.656Z,34.22
2022-08-27T09:34:08.593Z,34.21
2022-08-27T09:36:36.640Z,33.85
2022-08-27T09:39:07.385Z,34.30
2022-08-27T09:41:47.786Z,33.73
2022-08-27T09:44:19.322Z,33.76
2022-08-27T09:46:55.451Z,33.91
2022-08-27T09:49:24.225Z,33.76
2022-08-27T09:51:53.956Z,34.16
2022-08-27T09:54:43.854Z,34.75
2022-08-27T09:57:15.444Z,34.96
2022-08-27T09:59:53.940Z,34.45
2022-08-27T10:02:24.102Z,34.92
2022-08-27T10:04:54.046Z,34.97
2022-08-27T10:07:34.840Z,34.71
2022-08-27T10:10:10.897Z,35.94
2022-08-27T10:12:51.967Z,35.06
2022-08-27T10:15:20.087Z,35.34
2022-08-27T10:17:58.086Z,35.33
2022-08-27T10:20:35.241Z,35.43
2022-08-27T10:23:12.824Z,35.25
2022-08-27T10:25:50.219Z,34.88
2022-08-27T10:28:31.897Z,35.31
2022-08-27T10:31:11.534Z,36.35
2022-08-27T10:33:50.152Z,35.95
2022-08-27T10:36:32.336Z,35.22
2022-08-27T10:39:07.619Z,36.16
2022-08-27T10:41:42.920Z,36.18
2022-08-27T10:44:30.308Z,36.83
2022-08-27T10:47:11.029Z,37.17
2022-08-27T10:49:47.816Z,35.90
2022-08-27T10:52:21.276Z,36.03
2022-08-27T10:54:54.554Z,36.35
2022-08-27T10:57:53.899Z,36.64
2022-08-27T11:00:24.425Z,36.17
2022-08-27T11:02:56.236Z,36.35
2022-08-27T11:05:30.060Z,36.53
2022-08-27T11:08:05.302Z,36.46
2022-08-27T11:10:37.481Z,35.64
2022-08-27T11:13:07.899Z,36.15
2022-08-27T11:15:41.489Z,36.63
2022-08-27T11:18:16.812Z,36.93
2022-08-27T11:20:53.746Z,36.82
2022-08-27T11:23:27.210Z,36.66
2022-08-27T11:26:02.122Z,36.45
2022-08-27T11:28:37.582Z,36.95
2022-08-27T11:31:16.068Z,37.22
2022-08-27T11:33:48.521Z,36.96
2022-08-27T11:36:54.018Z,36.58
2022-08-27T11:39:41.139Z,36.58
2022-08-27T11:42:15.227Z,36.12
2022-08-27T11:44:44.967Z,37.17
2022-08-27T11:47:20.281Z,37.52
2022-08-27T11:49:52.119Z,37.70
2022-08-27T11:52:27.142Z,37.95
2022-08-27T11:55:10.724Z,36.98
2022-08-27T11:57:40.197Z,36.99
2022-08-27T12:00:21.377Z,37.64
2022-08-27T12:03:00.762Z,36.35
2022-08-27T12:05:38.079Z,35.46
2022-08-27T12:08:20.300Z,35.18
2022-08-27T12:11:02.467Z,35.07
2022-08-27T12:13:39.103Z,35.04
2022-08-27T12:16:17.686Z,35.32
2022-08-27T12:19:01.172Z,35.48
2022-08-27T12:21:46.338Z,35.25
2022-08-27T12:24:39.481Z,36.08
2022-08-27T12:27:18.255Z,36.13
2022-08-27T12:29:51.062Z,34.95
2022-08-27T12:32:29.855Z,35.36
2022-08-27T12:35:09.112Z,35.16
2022-08-27T12:37:40.479Z,35.23
2022-08-27T12:40:19.477Z,35.78
2022-08-27T12:42:48.945Z,34.99
2022-08-27T12:45:22.892Z,34.85
2022-08-27T12:47:52.398Z,35.27
2022-08-27T12:50:28.560Z,35.65
2022-08-27T12:53:19.170Z,35.99
2022-08-27T12:55:58.098Z,35.72
2022-08-27T12:58:36.585Z,35.87
2022-08-27T13:01:28.439Z,36.11
2022-08-27T13:03:57.767Z,36.64
2022-08-27T13:06:33.057Z,35.60
2022-08-27T13:09:02.860Z,34.96
2022-08-27T13:11:33.190Z,34.47
2022-08-27T13:14:10.618Z,34.57
2022-08-27T13:16:40.215Z,34.33
2022-08-27T13:19:09.533Z,34.18
2022-08-27T13:21:38.905Z,33.59
2022-08-27T13:24:07.928Z,33.10
2022-08-27T13:26:38.997Z,33.05
2022-08-27T13:29:08.517Z,33.13
2022-08-27T13:31:37.294Z,33.03
2022-08-27T13:34:07.026Z,32.93
2022-08-27T13:36:58.049Z,32.78
2022-08-27T13:39:26.931Z,32.73
2022-08-27T13:41:55.795Z,32.57
2022-08-27T13:44:28.082Z,32.57
2022-08-27T13:47:03.273Z,32.50
2022-08-27T13:49:39.659Z,32.00
2022-08-27T13:52:23.241Z,32.28
2022-08-27T13:55:05.890Z,32.43
2022-08-27T13:57:45.620Z,32.49
2022-08-27T14:00:18.172Z,32.42
2022-08-27T14:02:55.897Z,32.58
2022-08-27T14:05:33.814Z,32.55
2022-08-27T14:08:13.940Z,32.65
2022-08-27T14:10:47.251Z,32.71
2022-08-27T14:13:25.674Z,32.15
2022-08-27T14:15:56.708Z,32.66
2022-08-27T14:18:48.046Z,32.59
2022-08-27T14:21:15.703Z,32.51
2022-08-27T14:23:45.058Z,32.43
2022-08-27T14:26:15.011Z,32.29
2022-08-27T14:28:43.181Z,32.27
2022-08-27T14:31:11.701Z,32.26
2022-08-27T14:33:39.707Z,32.40
2022-08-27T14:36:08.712Z,32.33
2022-08-27T14:38:41.034Z,32.16
2022-08-27T14:41:10.625Z,32.17
2022-08-27T14:43:38.868Z,32.03
2022-08-27T14:46:08.837Z,31.80
2022-08-27T14:48:37.384Z,31.66
2022-08-27T14:51:13.192Z,31.61
2022-08-27T14:53:41.272Z,31.55
2022-08-27T14:56:10.673Z,31.26
2022-08-27T14:58:38.829Z,31.46
2022-08-27T15:01:07.233Z,31.49
2022-08-27T15:03:38.993Z,31.32
2022-08-27T15:06:07.441Z,31.10
2022-08-27T15:08:36.929Z,31.11
2022-08-27T15:11:05.403Z,31.14
2022-08-27T15:13:38.379Z,31.38
2022-08-27T15:16:07.015Z,31.44
2022-08-27T15:18:34.913Z,31.08
2022-08-27T15:21:02.994Z,31.40
2022-08-27T15:23:31.027Z,31.42
2022-08-27T15:25:58.952Z,31.38
2022-08-27T15:28:26.838Z,31.36
2022-08-27T15:30:56.186Z,31.47
2022-08-27T15:33:24.160Z,31.43
2022-08-27T15:35:52.252Z,31.37
2022-08-27T15:38:20.140Z,31.39
2022-08-27T15:40:49.227Z,30.67
2022-08-27T15:43:19.245Z,31.24
2022-08-27T15:45:47.124Z,31.38
2022-08-27T15:48:16.368Z,31.20
2022-08-27T15:50:44.497Z,31.08
2022-08-27T15:53:12.414Z,30.77
2022-08-27T15:55:42.348Z,30.97
2022-08-27T15:58:10.781Z,30.83
2022-08-27T16:00:39.841Z,30.88
2022-08-27T16:03:11.514Z,30.83
2022-08-27T16:05:44.459Z,30.49
2022-08-27T16:08:13.247Z,30.54
2022-08-27T16:10:41.518Z,30.53
2022-08-27T16:13:09.409Z,30.39
2022-08-27T16:15:40.542Z,30.30
2022-08-27T16:18:09.350Z,30.13
2022-08-27T16:20:37.233Z,29.43
2022-08-27T16:23:06.501Z,30.02
2022-08-27T16:25:34.554Z,29.84
2022-08-27T16:28:02.449Z,29.85
2022-08-27T16:30:30.868Z,29.78
2022-08-27T16:32:58.861Z,29.73
2022-08-27T16:35:26.779Z,29.70
2022-08-27T16:37:54.700Z,29.39
2022-08-27T16:40:24.114Z,29.56
2022-08-27T16:42:52.970Z,29.50
2022-08-27T16:45:24.142Z,29.14
2022-08-27T16:48:09.796Z,29.29
2022-08-27T16:50:37.983Z,29.22
2022-08-27T16:53:08.464Z,28.87
2022-08-27T16:55:39.186Z,28.86
2022-08-27T16:58:10.513Z,29.04
2022-08-27T17:00:38.942Z,28.97
2022-08-27T17:03:09.285Z,28.58
2022-08-27T17:05:37.564Z,28.76
2022-08-27T17:08:09.513Z,28.53
2022-08-27T17:10:45.683Z,28.62
2022-08-27T17:13:15.757Z,28.55
2022-08-27T17:15:44.106Z,28.45
2022-08-27T17:18:12.256Z,28.31
2022-08-27T17:20:40.333Z,28.13
2022-08-27T17:23:10.945Z,28.01
2022-08-27T17:25:38.857Z,27.87
2022-08-27T17:28:08.199Z,27.81
2022-08-27T17:30:36.166Z,27.69
2022-08-27T17:33:04.171Z,27.68
2022-08-27T17:35:32.068Z,27.51
2022-08-27T17:38:00.053Z,27.49
2022-08-27T17:40:28.152Z,27.33
2022-08-27T17:42:56.103Z,26.42
2022-08-27T17:45:25.368Z,27.08
2022-08-27T17:47:53.230Z,26.97
2022-08-27T17:50:21.132Z,26.03
2022-08-27T17:52:49.075Z,26.86
2022-08-27T17:55:16.968Z,26.79
2022-08-27T17:57:45.259Z,26.77
2022-08-27T18:00:14.882Z,26.71
2022-08-27T18:02:46.681Z,26.63
2022-08-27T18:05:16.644Z,26.59
2022-08-27T18:07:45.851Z,26.45
2022-08-27T18:10:16.154Z,26.16
2022-08-27T18:12:45.884Z,25.97
2022-08-27T18:15:18.918Z,26.23
2022-08-27T18:17:53.225Z,26.21
2022-08-27T18:20:23.515Z,26.17
2022-08-27T18:22:53.449Z,26.11
2022-08-27T18:25:24.704Z,26.01
2022-08-27T18:27:56.784Z,25.95
2022-08-27T18:30:25.857Z,25.79
2022-08-27T18:32:55.652Z,25.79
2022-08-27T18:35:26.341Z,25.71
2022-08-27T18:37:55.098Z,25.59
2022-08-27T18:40:25.261Z,25.10
2022-08-27T18:42:53.554Z,25.44
2022-08-27T18:45:26.582Z,25.38
2022-08-27T18:48:00.092Z,25.39
2022-08-27T18:50:28.441Z,25.44
2022-08-27T18:52:57.916Z,25.44
2022-08-27T18:55:28.650Z,25.40
2022-08-27T18:57:56.655Z,25.33
2022-08-27T19:00:24.902Z,25.27
2022-08-27T19:02:53.707Z,25.14
2022-08-27T19:05:27.139Z,24.91
2022-08-27T19:07:56.147Z,24.91
2022-08-27T19:10:24.924Z,24.96
2022-08-27T19:12:52.972Z,24.94
2022-08-27T19:15:21.366Z,24.87
2022-08-27T19:17:52.145Z,24.87
2022-08-27T19:20:20.424Z,24.86
2022-08-27T19:22:49.964Z,24.93
2022-08-27T19:25:19.152Z,24.57
2022-08-27T19:27:47.782Z,24.47
2022-08-27T19:30:17.276Z,24.50
2022-08-27T19:32:45.925Z,24.33
2022-08-27T19:35:15.242Z,24.32
2022-08-27T19:37:52.759Z,24.44
2022-08-27T19:40:23.013Z,24.39
2022-08-27T19:42:51.415Z,24.07
2022-08-27T19:45:23.718Z,23.83
2022-08-27T19:47:52.855Z,23.80
2022-08-27T19:50:21.527Z,23.79
2022-08-27T19:52:49.804Z,23.78
2022-08-27T19:55:18.113Z,23.65
2022-08-27T19:57:47.869Z,23.54
2022-08-27T20:00:19.332Z,23.58
2022-08-27T20:02:47.447Z,23.53
2022-08-27T20:05:19.714Z,23.56
2022-08-27T20:07:47.924Z,23.58
2022-08-27T20:10:16.410Z,23.50
2022-08-27T20:12:44.623Z,23.42
2022-08-27T20:15:14.576Z,23.36
2022-08-27T20:17:43.694Z,23.31
2022-08-27T20:20:12.141Z,23.23
2022-08-27T20:22:40.788Z,23.13
2022-08-27T20:25:09.595Z,23.11
2022-08-27T20:27:38.321Z,22.19
2022-08-27T20:30:08.223Z,23.13
2022-08-27T20:32:37.537Z,23.13
2022-08-27T20:35:07.068Z,22.67
2022-08-27T20:37:40.143Z,23.15
2022-08-27T20:40:14.403Z,23.09
2022-08-27T20:42:42.336Z,23.11
2022-08-27T20:45:12.304Z,22.90
2022-08-27T20:47:42.622Z,23.00
2022-08-27T20:50:12.863Z,23.28
2022-08-27T20:52:41.609Z,22.54
2022-08-27T20:55:12.218Z,23.17
2022-08-27T20:58:05.981Z,23.20
2022-08-27T21:00:35.267Z,22.18
2022-08-27T21:03:04.660Z,23.00
2022-08-27T21:05:34.775Z,22.90
2022-08-27T21:08:03.198Z,22.90
2022-08-27T21:10:31.132Z,23.03
2022-08-27T21:13:03.280Z,22.06
2022-08-27T21:15:32.906Z,22.47
2022-08-27T21:18:00.760Z,22.52
2022-08-27T21:20:32.206Z,22.39
2022-08-27T21:23:00.575Z,22.35
2022-08-27T21:25:29.304Z,22.51
2022-08-27T21:27:57.959Z,22.79
2022-08-27T21:30:26.462Z,22.63
2022-08-27T21:32:55.809Z,22.74
2022-08-27T21:35:26.476Z,22.66
2022-08-27T21:37:57.405Z,22.15
2022-08-27T21:40:26.411Z,22.40
2022-08-27T21:42:55.133Z,22.05
2022-08-27T21:45:23.453Z,22.44
2022-08-27T21:47:51.895Z,22.37
2022-08-27T21:50:20.765Z,22.52
2022-08-27T21:52:49.455Z,22.36
2022-08-27T21:55:19.500Z,22.41
2022-08-27T21:57:47.386Z,22.49
2022-08-27T22:00:40.510Z,22.40
2022-08-27T22:03:11.104Z,22.16
2022-08-27T22:05:41.303Z,22.27
2022-08-27T22:08:09.631Z,22.06
2022-08-27T22:10:39.512Z,22.21
2022-08-27T22:13:08.146Z,22.29
2022-08-27T22:15:36.954Z,22.16
2022-08-27T22:18:05.552Z,21.36
2022-08-27T22:20:34.000Z,21.86
2022-08-27T22:23:02.323Z,21.90
2022-08-27T22:25:30.351Z,22.00
2022-08-27T22:27:59.899Z,22.02
2022-08-27T22:30:28.021Z,21.96
2022-08-27T22:32:55.947Z,21.89
2022-08-27T22:35:24.307Z,21.63
2022-08-27T22:37:55.522Z,21.65
2022-08-27T22:40:25.890Z,21.62
2022-08-27T22:42:55.673Z,21.69
2022-08-27T22:45:26.030Z,21.73
2022-08-27T22:47:53.945Z,21.55
2022-08-27T22:50:22.915Z,21.59
2022-08-27T22:52:51.235Z,21.60
2022-08-27T22:55:23.783Z,21.78
2022-08-27T22:57:53.908Z,21.79
2022-08-27T23:00:27.120Z,21.47
2022-08-27T23:02:55.549Z,21.68
2022-08-27T23:05:24.316Z,21.64
2022-08-27T23:07:54.780Z,21.50
2022-08-27T23:10:25.258Z,21.32
2022-08-27T23:12:54.633Z,20.99
2022-08-27T23:15:27.392Z,21.21
2022-08-27T23:17:55.532Z,21.34
2022-08-27T23:20:24.359Z,21.36
2022-08-27T23:22:53.435Z,21.30
2022-08-27T23:25:43.263Z,21.31
2022-08-27T23:28:14.780Z,21.32
2022-08-27T23:30:45.167Z,21.40
2022-08-27T23:33:13.456Z,21.04
2022-08-27T23:35:44.487Z,21.23
2022-08-27T23:38:12.685Z,21.16
2022-08-27T23:40:41.029Z,20.76
2022-08-27T23:43:09.017Z,20.73
2022-08-27T23:45:40.438Z,20.39
2022-08-27T23:48:10.718Z,20.67
2022-08-27T23:50:39.080Z,20.65
2022-08-27T23:53:08.036Z,20.73
2022-08-27T23:55:36.375Z,20.75
2022-08-27T23:58:04.755Z,20.27
